sensor_id;sensor_type;location;lat;lon;timestamp;P1;durP1;ratioP1;P2;durP2;ratioP2
63324;SDS011;49451;52.390;13.028;2023-02-11T05:00:47;162.02;;;55.92;;
63324;SDS011;49451;52.390;13.028;2023-02-11T05:03:13;177.50;;;54.25;;
63324;SDS011;49451;52.390;13.028;2023-02-11T05:05:40;191.18;;;55.95;;
63324;SDS011;49451;52.390;13.028;2023-02-11T05:08:07;181.20;;;57.15;;
63324;SDS011;49451;52.390;13.028;2023-02-11T05:10:33;173.10;;;57.67;;
63324;SDS011;49451;52.390;13.028;2023-02-11T05:12:58;183.50;;;59.70;;
63324;SDS011;49451;52.390;13.028;2023-02-11T05:15:24;194.57;;;61.30;;
63324;SDS011;49451;52.390;13.028;2023-02-11T05:17:50;174.60;;;55.33;;
63324;SDS011;49451;52.390;13.028;2023-02-11T05:20:15;184.50;;;57.92;;
63324;SDS011;49451;52.390;13.028;2023-02-11T05:22:40;174.70;;;55.97;;
63324;SDS011;49451;52.390;13.028;2023-02-11T05:25:06;188.10;;;61.13;;
63324;SDS011;49451;52.390;13.028;2023-02-11T05:27:31;178.20;;;59.28;;
63324;SDS011;49451;52.390;13.028;2023-02-11T05:29:57;180.52;;;57.92;;
63324;SDS011;49451;52.390;13.028;2023-02-11T05:32:22;171.43;;;56.05;;
63324;SDS011;49451;52.390;13.028;2023-02-11T05:34:47;168.00;;;58.08;;
63324;SDS011;49451;52.390;13.028;2023-02-11T05:37:13;176.35;;;56.28;;
63324;SDS011;49451;52.390;13.028;2023-02-11T05:39:38;168.75;;;56.65;;
63324;SDS011;49451;52.390;13.028;2023-02-11T05:42:04;178.68;;;54.67;;
63324;SDS011;49451;52.390;13.028;2023-02-11T05:44:29;164.90;;;56.30;;
63324;SDS011;49451;52.390;13.028;2023-02-11T05:46:54;170.30;;;55.78;;
63324;SDS011;49451;52.390;13.028;2023-02-11T05:49:20;165.98;;;56.17;;
63324;SDS011;49451;52.390;13.028;2023-02-11T05:51:45;164.65;;;56.08;;
63324;SDS011;49451;52.390;13.028;2023-02-11T05:54:11;154.50;;;54.97;;
63324;SDS011;49451;52.390;13.028;2023-02-11T05:56:36;179.05;;;57.63;;
63324;SDS011;49451;52.390;13.028;2023-02-11T05:59:01;157.13;;;56.70;;
63324;SDS011;49451;52.390;13.028;2023-02-11T06:01:27;156.90;;;54.50;;
63324;SDS011;49451;52.390;13.028;2023-02-11T06:03:52;137.52;;;48.47;;
63324;SDS011;49451;52.390;13.028;2023-02-11T06:06:18;152.00;;;52.00;;
63324;SDS011;49451;52.390;13.028;2023-02-11T06:08:43;150.35;;;50.85;;
63324;SDS011;49451;52.390;13.028;2023-02-11T06:11:08;130.70;;;49.60;;
63324;SDS011;49451;52.390;13.028;2023-02-11T06:13:34;141.70;;;51.22;;
63324;SDS011;49451;52.390;13.028;2023-02-11T06:16:00;140.43;;;52.78;;
63324;SDS011;49451;52.390;13.028;2023-02-11T06:18:27;155.55;;;49.95;;
63324;SDS011;49451;52.390;13.028;2023-02-11T06:20:52;139.68;;;50.95;;
63324;SDS011;49451;52.390;13.028;2023-02-11T06:23:18;141.13;;;50.33;;
63324;SDS011;49451;52.390;13.028;2023-02-11T06:25:44;142.13;;;50.00;;
63324;SDS011;49451;52.390;13.028;2023-02-11T06:28:09;135.40;;;50.95;;
63324;SDS011;49451;52.390;13.028;2023-02-11T06:30:35;127.32;;;49.50;;
63324;SDS011;49451;52.390;13.028;2023-02-11T06:33:01;125.53;;;46.95;;
63324;SDS011;49451;52.390;13.028;2023-02-11T06:35:27;126.82;;;47.22;;
63324;SDS011;49451;52.390;13.028;2023-02-11T06:37:53;119.28;;;46.45;;
63324;SDS011;49451;52.390;13.028;2023-02-11T06:40:18;126.68;;;46.72;;
63324;SDS011;49451;52.390;13.028;2023-02-11T06:42:45;115.65;;;46.47;;
63324;SDS011;49451;52.390;13.028;2023-02-11T06:45:10;112.35;;;45.58;;
63324;SDS011;49451;52.390;13.028;2023-02-11T06:47:37;120.07;;;45.83;;
63324;SDS011;49451;52.390;13.028;2023-02-11T06:50:03;115.30;;;44.10;;
63324;SDS011;49451;52.390;13.028;2023-02-11T06:52:31;105.38;;;43.15;;
63324;SDS011;49451;52.390;13.028;2023-02-11T06:54:56;101.25;;;42.17;;
63324;SDS011;49451;52.390;13.028;2023-02-11T06:57:21;113.18;;;43.30;;
63324;SDS011;49451;52.390;13.028;2023-02-11T06:59:47;106.53;;;41.30;;
63324;SDS011;49451;52.390;13.028;2023-02-11T07:02:12;100.38;;;41.30;;
63324;SDS011;49451;52.390;13.028;2023-02-11T07:04:38;89.47;;;41.13;;
63324;SDS011;49451;52.390;13.028;2023-02-11T07:07:03;102.13;;;40.53;;
63324;SDS011;49451;52.390;13.028;2023-02-11T07:09:28;92.18;;;40.30;;
63324;SDS011;49451;52.390;13.028;2023-02-11T07:11:54;85.93;;;38.17;;
63324;SDS011;49451;52.390;13.028;2023-02-11T07:14:19;82.70;;;38.28;;
63324;SDS011;49451;52.390;13.028;2023-02-11T07:16:45;92.60;;;39.58;;
63324;SDS011;49451;52.390;13.028;2023-02-11T07:19:10;79.15;;;37.55;;
63324;SDS011;49451;52.390;13.028;2023-02-11T07:21:35;82.90;;;36.83;;
63324;SDS011;49451;52.390;13.028;2023-02-11T07:24:01;89.03;;;39.75;;
63324;SDS011;49451;52.390;13.028;2023-02-11T07:26:30;87.00;;;37.05;;
63324;SDS011;49451;52.390;13.028;2023-02-11T07:28:56;81.32;;;38.38;;
63324;SDS011;49451;52.390;13.028;2023-02-11T07:31:25;83.93;;;36.45;;
63324;SDS011;49451;52.390;13.028;2023-02-11T07:33:53;85.40;;;37.35;;
63324;SDS011;49451;52.390;13.028;2023-02-11T07:36:21;78.32;;;35.75;;
63324;SDS011;49451;52.390;13.028;2023-02-11T07:38:47;77.10;;;36.30;;
63324;SDS011;49451;52.390;13.028;2023-02-11T07:41:13;82.65;;;35.90;;
63324;SDS011;49451;52.390;13.028;2023-02-11T07:43:41;74.75;;;35.67;;
63324;SDS011;49451;52.390;13.028;2023-02-11T07:46:11;72.78;;;34.58;;
63324;SDS011;49451;52.390;13.028;2023-02-11T07:48:42;67.65;;;32.10;;
63324;SDS011;49451;52.390;13.028;2023-02-11T07:51:09;72.50;;;34.25;;
63324;SDS011;49451;52.390;13.028;2023-02-11T07:53:37;77.22;;;35.78;;
63324;SDS011;49451;52.390;13.028;2023-02-11T07:56:03;73.07;;;30.88;;
63324;SDS011;49451;52.390;13.028;2023-02-11T07:58:29;69.82;;;33.35;;
63324;SDS011;49451;52.390;13.028;2023-02-11T08:00:59;62.25;;;29.30;;
63324;SDS011;49451;52.390;13.028;2023-02-11T08:03:32;65.82;;;30.08;;
63324;SDS011;49451;52.390;13.028;2023-02-11T08:06:01;56.58;;;29.00;;
63324;SDS011;49451;52.390;13.028;2023-02-11T08:08:28;60.20;;;31.55;;
63324;SDS011;49451;52.390;13.028;2023-02-11T08:10:53;59.75;;;30.50;;
63324;SDS011;49451;52.390;13.028;2023-02-11T08:13:18;61.42;;;31.92;;
63324;SDS011;49451;52.390;13.028;2023-02-11T08:15:44;57.85;;;29.50;;
63324;SDS011;49451;52.390;13.028;2023-02-11T08:18:11;63.35;;;29.50;;
63324;SDS011;49451;52.390;13.028;2023-02-11T08:20:37;53.70;;;28.02;;
63324;SDS011;49451;52.390;13.028;2023-02-11T08:23:04;53.45;;;28.08;;
63324;SDS011;49451;52.390;13.028;2023-02-11T08:25:30;60.33;;;28.50;;
63324;SDS011;49451;52.390;13.028;2023-02-11T08:27:56;55.50;;;27.98;;
63324;SDS011;49451;52.390;13.028;2023-02-11T08:30:22;49.50;;;26.10;;
63324;SDS011;49451;52.390;13.028;2023-02-11T08:32:47;56.75;;;26.75;;
63324;SDS011;49451;52.390;13.028;2023-02-11T08:35:13;48.05;;;23.95;;
63324;SDS011;49451;52.390;13.028;2023-02-11T08:37:38;60.75;;;28.58;;
63324;SDS011;49451;52.390;13.028;2023-02-11T08:40:04;51.30;;;25.75;;
63324;SDS011;49451;52.390;13.028;2023-02-11T08:42:30;60.88;;;27.67;;
63324;SDS011;49451;52.390;13.028;2023-02-11T08:44:55;52.00;;;25.63;;
63324;SDS011;49451;52.390;13.028;2023-02-11T08:47:20;55.47;;;27.02;;
63324;SDS011;49451;52.390;13.028;2023-02-11T08:49:46;59.47;;;26.10;;
63324;SDS011;49451;52.390;13.028;2023-02-11T08:52:11;54.50;;;26.88;;
63324;SDS011;49451;52.390;13.028;2023-02-11T08:54:37;42.63;;;22.65;;
63324;SDS011;49451;52.390;13.028;2023-02-11T08:57:02;53.95;;;26.42;;
63324;SDS011;49451;52.390;13.028;2023-02-11T08:59:28;57.70;;;28.08;;
63324;SDS011;49451;52.390;13.028;2023-02-11T09:01:53;54.65;;;26.63;;
63324;SDS011;49451;52.390;13.028;2023-02-11T09:04:19;49.97;;;24.88;;
63324;SDS011;49451;52.390;13.028;2023-02-11T09:06:45;51.67;;;24.45;;
63324;SDS011;49451;52.390;13.028;2023-02-11T09:09:11;51.97;;;27.02;;
63324;SDS011;49451;52.390;13.028;2023-02-11T09:11:38;57.75;;;27.58;;
63324;SDS011;49451;52.390;13.028;2023-02-11T09:14:05;52.42;;;26.50;;
63324;SDS011;49451;52.390;13.028;2023-02-11T09:16:32;52.33;;;27.38;;
63324;SDS011;49451;52.390;13.028;2023-02-11T09:19:00;59.20;;;26.55;;
63324;SDS011;49451;52.390;13.028;2023-02-11T09:21:26;43.03;;;22.63;;
63324;SDS011;49451;52.390;13.028;2023-02-11T09:23:53;48.30;;;25.65;;
63324;SDS011;49451;52.390;13.028;2023-02-11T09:26:22;53.08;;;26.75;;
63324;SDS011;49451;52.390;13.028;2023-02-11T09:28:55;48.03;;;23.85;;
63324;SDS011;49451;52.390;13.028;2023-02-11T09:31:22;48.95;;;26.17;;
63324;SDS011;49451;52.390;13.028;2023-02-11T09:33:49;49.40;;;25.85;;
63324;SDS011;49451;52.390;13.028;2023-02-11T09:36:17;44.35;;;25.15;;
63324;SDS011;49451;52.390;13.028;2023-02-11T09:38:45;44.40;;;24.63;;
63324;SDS011;49451;52.390;13.028;2023-02-11T09:43:58;47.38;;;24.50;;
63324;SDS011;49451;52.390;13.028;2023-02-11T09:46:33;54.97;;;26.02;;
63324;SDS011;49451;52.390;13.028;2023-02-11T09:49:03;48.13;;;24.25;;
63324;SDS011;49451;52.390;13.028;2023-02-11T09:51:33;46.95;;;25.50;;
63324;SDS011;49451;52.390;13.028;2023-02-11T09:54:30;43.28;;;23.98;;
63324;SDS011;49451;52.390;13.028;2023-02-11T09:57:01;43.33;;;23.30;;
63324;SDS011;49451;52.390;13.028;2023-02-11T09:59:27;43.88;;;23.90;;
63324;SDS011;49451;52.390;13.028;2023-02-11T10:01:54;43.30;;;23.85;;
63324;SDS011;49451;52.390;13.028;2023-02-11T10:04:35;54.67;;;25.35;;
63324;SDS011;49451;52.390;13.028;2023-02-11T10:07:17;40.15;;;23.30;;
63324;SDS011;49451;52.390;13.028;2023-02-11T10:20:40;43.10;;;23.48;;
63324;SDS011;49451;52.390;13.028;2023-02-11T10:23:20;40.70;;;23.05;;
63324;SDS011;49451;52.390;13.028;2023-02-11T10:25:50;43.45;;;23.45;;
63324;SDS011;49451;52.390;13.028;2023-02-11T10:28:21;40.75;;;22.98;;
63324;SDS011;49451;52.390;13.028;2023-02-11T10:36:00;43.17;;;22.50;;
63324;SDS011;49451;52.390;13.028;2023-02-11T10:38:26;43.97;;;24.10;;
63324;SDS011;49451;52.390;13.028;2023-02-11T10:40:52;46.95;;;24.35;;
63324;SDS011;49451;52.390;13.028;2023-02-11T10:43:18;40.40;;;22.88;;
63324;SDS011;49451;52.390;13.028;2023-02-11T10:45:50;46.42;;;22.73;;
63324;SDS011;49451;52.390;13.028;2023-02-11T10:51:07;42.15;;;23.08;;
63324;SDS011;49451;52.390;13.028;2023-02-11T10:53:39;43.38;;;22.80;;
63324;SDS011;49451;52.390;13.028;2023-02-11T10:56:05;42.80;;;24.15;;
63324;SDS011;49451;52.390;13.028;2023-02-11T10:58:36;48.85;;;24.67;;
63324;SDS011;49451;52.390;13.028;2023-02-11T11:03:33;52.47;;;22.00;;
63324;SDS011;49451;52.390;13.028;2023-02-11T11:06:05;42.15;;;22.30;;
63324;SDS011;49451;52.390;13.028;2023-02-11T11:08:36;45.40;;;22.60;;
63324;SDS011;49451;52.390;13.028;2023-02-11T11:11:05;44.03;;;22.60;;
63324;SDS011;49451;52.390;13.028;2023-02-11T11:16:29;42.75;;;22.50;;
63324;SDS011;49451;52.390;13.028;2023-02-11T11:21:32;42.40;;;22.15;;
63324;SDS011;49451;52.390;13.028;2023-02-11T11:24:04;39.67;;;21.77;;
63324;SDS011;49451;52.390;13.028;2023-02-11T11:26:39;46.55;;;23.30;;
63324;SDS011;49451;52.390;13.028;2023-02-11T11:29:07;41.17;;;23.48;;
63324;SDS011;49451;52.390;13.028;2023-02-11T11:31:44;41.95;;;23.08;;
63324;SDS011;49451;52.390;13.028;2023-02-11T11:36:50;41.80;;;22.17;;
63324;SDS011;49451;52.390;13.028;2023-02-11T11:39:20;43.28;;;22.33;;
63324;SDS011;49451;52.390;13.028;2023-02-11T11:41:56;40.65;;;21.83;;
63324;SDS011;49451;52.390;13.028;2023-02-11T11:44:36;39.42;;;21.73;;
63324;SDS011;49451;52.390;13.028;2023-02-11T11:55:42;39.05;;;20.73;;
63324;SDS011;49451;52.390;13.028;2023-02-11T11:58:15;37.55;;;19.70;;
63324;SDS011;49451;52.390;13.028;2023-02-11T12:00:48;34.90;;;19.85;;
63324;SDS011;49451;52.390;13.028;2023-02-11T12:03:25;40.97;;;19.83;;
63324;SDS011;49451;52.390;13.028;2023-02-11T12:09:17;29.38;;;18.38;;
63324;SDS011;49451;52.390;13.028;2023-02-11T12:20:25;30.45;;;16.75;;
63324;SDS011;49451;52.390;13.028;2023-02-11T12:25:52;27.13;;;16.20;;
63324;SDS011;49451;52.390;13.028;2023-02-11T12:34:19;17.42;;;11.38;;
63324;SDS011;49451;52.390;13.028;2023-02-11T12:36:58;25.27;;;14.02;;
63324;SDS011;49451;52.390;13.028;2023-02-11T12:39:33;25.05;;;15.70;;
63324;SDS011;49451;52.390;13.028;2023-02-11T12:45:32;38.65;;;16.85;;
63324;SDS011;49451;52.390;13.028;2023-02-11T12:55:58;26.70;;;15.75;;
63324;SDS011;49451;52.390;13.028;2023-02-11T12:58:30;28.02;;;14.75;;
63324;SDS011;49451;52.390;13.028;2023-02-11T13:01:01;28.38;;;15.95;;
63324;SDS011;49451;52.390;13.028;2023-02-11T13:06:44;25.15;;;14.75;;
63324;SDS011;49451;52.390;13.028;2023-02-11T13:09:18;24.98;;;13.80;;
63324;SDS011;49451;52.390;13.028;2023-02-11T13:11:50;25.08;;;14.68;;
63324;SDS011;49451;52.390;13.028;2023-02-11T13:16:48;29.13;;;16.30;;
63324;SDS011;49451;52.390;13.028;2023-02-11T13:21:59;27.27;;;13.93;;
63324;SDS011;49451;52.390;13.028;2023-02-11T13:35:25;24.63;;;15.05;;
63324;SDS011;49451;52.390;13.028;2023-02-11T13:37:53;26.27;;;15.15;;
63324;SDS011;49451;52.390;13.028;2023-02-11T13:40:24;24.38;;;14.77;;
63324;SDS011;49451;52.390;13.028;2023-02-11T13:42:52;24.52;;;13.57;;
63324;SDS011;49451;52.390;13.028;2023-02-11T13:45:42;30.08;;;15.20;;
63324;SDS011;49451;52.390;13.028;2023-02-11T13:48:16;22.55;;;13.40;;
63324;SDS011;49451;52.390;13.028;2023-02-11T13:50:53;22.05;;;14.60;;
63324;SDS011;49451;52.390;13.028;2023-02-11T13:53:21;24.48;;;13.40;;
63324;SDS011;49451;52.390;13.028;2023-02-11T13:55:48;18.27;;;13.30;;
63324;SDS011;49451;52.390;13.028;2023-02-11T14:00:44;20.38;;;12.77;;
63324;SDS011;49451;52.390;13.028;2023-02-11T14:19:37;21.85;;;11.95;;
63324;SDS011;49451;52.390;13.028;2023-02-11T14:23:15;21.77;;;12.15;;
63324;SDS011;49451;52.390;13.028;2023-02-11T14:25:15;18.50;;;11.05;;
63324;SDS011;49451;52.390;13.028;2023-02-11T14:27:47;20.98;;;10.70;;
63324;SDS011;49451;52.390;13.028;2023-02-11T14:35:52;18.65;;;10.32;;
63324;SDS011;49451;52.390;13.028;2023-02-11T14:41:28;16.90;;;10.23;;
63324;SDS011;49451;52.390;13.028;2023-02-11T14:44:00;21.00;;;10.95;;
63324;SDS011;49451;52.390;13.028;2023-02-11T14:46:29;18.25;;;10.52;;
63324;SDS011;49451;52.390;13.028;2023-02-11T14:48:57;21.90;;;10.95;;
63324;SDS011;49451;52.390;13.028;2023-02-11T14:51:27;17.98;;;10.07;;
63324;SDS011;49451;52.390;13.028;2023-02-11T14:54:01;19.15;;;10.95;;
63324;SDS011;49451;52.390;13.028;2023-02-11T14:56:39;16.27;;;10.05;;
63324;SDS011;49451;52.390;13.028;2023-02-11T14:59:15;22.17;;;10.98;;
63324;SDS011;49451;52.390;13.028;2023-02-11T15:01:48;17.40;;;10.57;;
63324;SDS011;49451;52.390;13.028;2023-02-11T15:06:48;15.85;;;9.57;;
63324;SDS011;49451;52.390;13.028;2023-02-11T15:09:21;17.02;;;10.43;;
63324;SDS011;49451;52.390;13.028;2023-02-11T15:11:52;17.77;;;11.05;;
63324;SDS011;49451;52.390;13.028;2023-02-11T15:17:13;15.95;;;9.60;;
63324;SDS011;49451;52.390;13.028;2023-02-11T15:19:46;19.60;;;10.95;;
63324;SDS011;49451;52.390;13.028;2023-02-11T15:22:25;15.05;;;9.77;;
63324;SDS011;49451;52.390;13.028;2023-02-11T15:25:12;18.88;;;11.07;;
63324;SDS011;49451;52.390;13.028;2023-02-11T15:27:41;16.75;;;9.70;;
63324;SDS011;49451;52.390;13.028;2023-02-11T15:32:53;17.98;;;10.68;;
63324;SDS011;49451;52.390;13.028;2023-02-11T15:35:27;16.10;;;10.05;;
63324;SDS011;49451;52.390;13.028;2023-02-11T15:38:01;20.42;;;11.48;;
63324;SDS011;49451;52.390;13.028;2023-02-11T15:40:56;18.13;;;10.35;;
63324;SDS011;49451;52.390;13.028;2023-02-11T15:43:47;21.95;;;11.15;;
63324;SDS011;49451;52.390;13.028;2023-02-11T15:46:24;19.40;;;12.02;;
63324;SDS011;49451;52.390;13.028;2023-02-11T15:49:03;15.45;;;10.25;;
63324;SDS011;49451;52.390;13.028;2023-02-11T15:51:31;17.23;;;11.43;;
63324;SDS011;49451;52.390;13.028;2023-02-11T15:54:02;16.35;;;11.32;;
63324;SDS011;49451;52.390;13.028;2023-02-11T15:56:38;16.60;;;10.85;;
63324;SDS011;49451;52.390;13.028;2023-02-11T15:59:18;15.70;;;10.75;;
63324;SDS011;49451;52.390;13.028;2023-02-11T16:01:51;20.17;;;11.73;;
63324;SDS011;49451;52.390;13.028;2023-02-11T16:04:19;22.75;;;11.18;;
63324;SDS011;49451;52.390;13.028;2023-02-11T16:06:47;16.38;;;10.35;;
63324;SDS011;49451;52.390;13.028;2023-02-11T16:16:56;18.08;;;11.30;;
63324;SDS011;49451;52.390;13.028;2023-02-11T16:19:28;15.98;;;10.38;;
63324;SDS011;49451;52.390;13.028;2023-02-11T16:21:56;15.43;;;11.02;;
63324;SDS011;49451;52.390;13.028;2023-02-11T16:24:27;15.38;;;11.48;;
63324;SDS011;49451;52.390;13.028;2023-02-11T16:26:59;18.33;;;11.80;;
63324;SDS011;49451;52.390;13.028;2023-02-11T16:29:46;20.95;;;10.90;;
63324;SDS011;49451;52.390;13.028;2023-02-11T16:32:17;17.73;;;11.20;;
63324;SDS011;49451;52.390;13.028;2023-02-11T16:34:45;20.35;;;11.07;;
63324;SDS011;49451;52.390;13.028;2023-02-11T16:37:11;20.58;;;11.20;;
63324;SDS011;49451;52.390;13.028;2023-02-11T16:39:36;17.60;;;11.98;;
63324;SDS011;49451;52.390;13.028;2023-02-11T16:42:02;21.30;;;12.15;;
63324;SDS011;49451;52.390;13.028;2023-02-11T16:44:27;16.48;;;11.25;;
63324;SDS011;49451;52.390;13.028;2023-02-11T16:46:53;16.52;;;10.35;;
63324;SDS011;49451;52.390;13.028;2023-02-11T16:49:23;16.80;;;10.63;;
63324;SDS011;49451;52.390;13.028;2023-02-11T16:51:51;15.57;;;10.20;;
63324;SDS011;49451;52.390;13.028;2023-02-11T16:54:20;15.43;;;10.30;;
63324;SDS011;49451;52.390;13.028;2023-02-11T16:56:46;18.52;;;10.80;;
63324;SDS011;49451;52.390;13.028;2023-02-11T16:59:11;18.27;;;10.40;;
63324;SDS011;49451;52.390;13.028;2023-02-11T17:01:37;16.00;;;9.75;;
63324;SDS011;49451;52.390;13.028;2023-02-11T17:04:04;16.42;;;9.98;;
63324;SDS011;49451;52.390;13.028;2023-02-11T17:06:30;14.43;;;9.38;;
63324;SDS011;49451;52.390;13.028;2023-02-11T17:08:58;15.98;;;9.63;;
63324;SDS011;49451;52.390;13.028;2023-02-11T17:11:23;15.43;;;9.68;;
63324;SDS011;49451;52.390;13.028;2023-02-11T17:13:49;13.57;;;8.45;;
63324;SDS011;49451;52.390;13.028;2023-02-11T17:16:18;13.40;;;9.25;;
63324;SDS011;49451;52.390;13.028;2023-02-11T17:18:46;13.68;;;9.18;;
63324;SDS011;49451;52.390;13.028;2023-02-11T17:21:13;13.93;;;8.57;;
63324;SDS011;49451;52.390;13.028;2023-02-11T17:23:38;14.23;;;10.27;;
63324;SDS011;49451;52.390;13.028;2023-02-11T17:26:04;12.10;;;8.15;;
63324;SDS011;49451;52.390;13.028;2023-02-11T17:28:29;11.70;;;8.82;;
63324;SDS011;49451;52.390;13.028;2023-02-11T17:30:56;12.23;;;8.90;;
63324;SDS011;49451;52.390;13.028;2023-02-11T17:33:22;11.32;;;8.55;;
63324;SDS011;49451;52.390;13.028;2023-02-11T17:35:47;14.40;;;8.95;;
63324;SDS011;49451;52.390;13.028;2023-02-11T17:38:12;12.75;;;8.98;;
63324;SDS011;49451;52.390;13.028;2023-02-11T17:40:38;12.82;;;8.73;;
63324;SDS011;49451;52.390;13.028;2023-02-11T17:43:03;13.50;;;9.07;;
63324;SDS011;49451;52.390;13.028;2023-02-11T17:45:29;13.35;;;8.50;;
63324;SDS011;49451;52.390;13.028;2023-02-11T17:47:54;13.25;;;9.73;;
63324;SDS011;49451;52.390;13.028;2023-02-11T17:50:19;15.52;;;8.98;;
63324;SDS011;49451;52.390;13.028;2023-02-11T17:52:45;13.02;;;9.00;;
63324;SDS011;49451;52.390;13.028;2023-02-11T17:55:10;15.43;;;9.80;;
63324;SDS011;49451;52.390;13.028;2023-02-11T17:57:36;12.00;;;8.77;;
63324;SDS011;49451;52.390;13.028;2023-02-11T18:00:02;14.23;;;9.23;;
63324;SDS011;49451;52.390;13.028;2023-02-11T18:02:29;11.88;;;8.57;;
63324;SDS011;49451;52.390;13.028;2023-02-11T18:04:54;14.82;;;9.32;;
63324;SDS011;49451;52.390;13.028;2023-02-11T18:07:21;15.20;;;9.48;;
63324;SDS011;49451;52.390;13.028;2023-02-11T18:09:47;14.45;;;9.27;;
63324;SDS011;49451;52.390;13.028;2023-02-11T18:12:12;12.50;;;7.88;;
63324;SDS011;49451;52.390;13.028;2023-02-11T18:14:38;14.75;;;8.60;;
63324;SDS011;49451;52.390;13.028;2023-02-11T18:17:04;12.80;;;8.25;;
63324;SDS011;49451;52.390;13.028;2023-02-11T18:19:30;12.23;;;8.48;;
63324;SDS011;49451;52.390;13.028;2023-02-11T18:21:59;13.18;;;8.75;;
63324;SDS011;49451;52.390;13.028;2023-02-11T18:24:24;11.63;;;7.95;;
63324;SDS011;49451;52.390;13.028;2023-02-11T18:26:50;13.43;;;8.02;;
63324;SDS011;49451;52.390;13.028;2023-02-11T18:29:16;12.68;;;7.47;;
63324;SDS011;49451;52.390;13.028;2023-02-11T18:31:41;11.02;;;8.13;;
63324;SDS011;49451;52.390;13.028;2023-02-11T18:34:07;12.30;;;8.20;;
63324;SDS011;49451;52.390;13.028;2023-02-11T18:36:34;11.02;;;7.78;;
63324;SDS011;49451;52.390;13.028;2023-02-11T18:39:00;10.13;;;7.70;;
63324;SDS011;49451;52.390;13.028;2023-02-11T18:41:27;12.75;;;8.52;;
63324;SDS011;49451;52.390;13.028;2023-02-11T18:43:52;11.32;;;8.20;;
63324;SDS011;49451;52.390;13.028;2023-02-11T18:46:18;10.52;;;7.47;;
63324;SDS011;49451;52.390;13.028;2023-02-11T18:48:43;11.65;;;7.70;;
63324;SDS011;49451;52.390;13.028;2023-02-11T18:51:10;9.40;;;7.57;;
63324;SDS011;49451;52.390;13.028;2023-02-11T18:53:38;11.10;;;7.53;;
63324;SDS011;49451;52.390;13.028;2023-02-11T18:56:07;11.02;;;7.55;;
63324;SDS011;49451;52.390;13.028;2023-02-11T18:58:34;9.52;;;7.43;;
63324;SDS011;49451;52.390;13.028;2023-02-11T19:01:07;11.73;;;7.53;;
63324;SDS011;49451;52.390;13.028;2023-02-11T19:03:34;10.63;;;7.45;;
63324;SDS011;49451;52.390;13.028;2023-02-11T19:05:59;10.98;;;7.78;;
63324;SDS011;49451;52.390;13.028;2023-02-11T19:08:25;13.23;;;7.90;;
63324;SDS011;49451;52.390;13.028;2023-02-11T19:10:50;11.52;;;7.88;;
63324;SDS011;49451;52.390;13.028;2023-02-11T19:13:16;12.90;;;7.88;;
63324;SDS011;49451;52.390;13.028;2023-02-11T19:15:45;13.15;;;8.45;;
63324;SDS011;49451;52.390;13.028;2023-02-11T19:18:10;10.80;;;8.45;;
63324;SDS011;49451;52.390;13.028;2023-02-11T19:20:42;10.50;;;7.38;;
63324;SDS011;49451;52.390;13.028;2023-02-11T19:23:09;11.40;;;7.93;;
63324;SDS011;49451;52.390;13.028;2023-02-11T19:25:35;10.90;;;7.65;;
63324;SDS011;49451;52.390;13.028;2023-02-11T19:28:01;19.33;;;12.52;;
63324;SDS011;49451;52.390;13.028;2023-02-11T19:30:29;15.98;;;10.88;;
63324;SDS011;49451;52.390;13.028;2023-02-11T19:32:55;15.27;;;9.98;;
63324;SDS011;49451;52.390;13.028;2023-02-11T19:35:22;14.38;;;8.40;;
63324;SDS011;49451;52.390;13.028;2023-02-11T19:37:48;19.08;;;11.55;;
63324;SDS011;49451;52.390;13.028;2023-02-11T19:40:13;13.55;;;9.18;;
63324;SDS011;49451;52.390;13.028;2023-02-11T19:42:40;11.52;;;7.50;;
63324;SDS011;49451;52.390;13.028;2023-02-11T19:45:06;12.68;;;8.45;;
63324;SDS011;49451;52.390;13.028;2023-02-11T19:47:32;15.50;;;9.65;;
63324;SDS011;49451;52.390;13.028;2023-02-11T19:49:58;13.68;;;9.65;;
63324;SDS011;49451;52.390;13.028;2023-02-11T19:52:23;11.73;;;9.38;;
63324;SDS011;49451;52.390;13.028;2023-02-11T19:54:49;15.13;;;9.55;;
63324;SDS011;49451;52.390;13.028;2023-02-11T19:57:14;12.23;;;8.50;;
63324;SDS011;49451;52.390;13.028;2023-02-11T19:59:40;17.20;;;10.73;;
63324;SDS011;49451;52.390;13.028;2023-02-11T20:02:05;16.48;;;9.60;;
63324;SDS011;49451;52.390;13.028;2023-02-11T20:04:31;12.23;;;8.93;;
63324;SDS011;49451;52.390;13.028;2023-02-11T20:06:57;15.30;;;8.73;;
63324;SDS011;49451;52.390;13.028;2023-02-11T20:09:22;11.38;;;8.05;;
63324;SDS011;49451;52.390;13.028;2023-02-11T20:11:48;11.27;;;8.55;;
63324;SDS011;49451;52.390;13.028;2023-02-11T20:14:14;9.48;;;7.35;;
63324;SDS011;49451;52.390;13.028;2023-02-11T20:16:40;10.98;;;7.18;;
63324;SDS011;49451;52.390;13.028;2023-02-11T20:19:06;9.20;;;6.47;;
63324;SDS011;49451;52.390;13.028;2023-02-11T20:21:31;8.20;;;6.28;;
63324;SDS011;49451;52.390;13.028;2023-02-11T20:23:57;13.05;;;6.65;;
63324;SDS011;49451;52.390;13.028;2023-02-11T20:26:24;9.63;;;6.28;;
63324;SDS011;49451;52.390;13.028;2023-02-11T20:28:51;13.63;;;6.93;;
63324;SDS011;49451;52.390;13.028;2023-02-11T20:31:18;11.75;;;6.80;;
63324;SDS011;49451;52.390;13.028;2023-02-11T20:33:45;14.15;;;7.50;;
63324;SDS011;49451;52.390;13.028;2023-02-11T20:38:41;10.65;;;6.40;;
63324;SDS011;49451;52.390;13.028;2023-02-11T20:41:11;10.90;;;6.45;;
63324;SDS011;49451;52.390;13.028;2023-02-11T20:43:39;10.38;;;6.25;;
63324;SDS011;49451;52.390;13.028;2023-02-11T20:46:06;10.82;;;6.18;;
63324;SDS011;49451;52.390;13.028;2023-02-11T20:48:32;10.55;;;6.82;;
63324;SDS011;49451;52.390;13.028;2023-02-11T20:51:06;12.63;;;6.95;;
63324;SDS011;49451;52.390;13.028;2023-02-11T20:53:40;24.38;;;14.05;;
63324;SDS011;49451;52.390;13.028;2023-02-11T20:56:14;13.27;;;7.57;;
63324;SDS011;49451;52.390;13.028;2023-02-11T20:58:40;13.82;;;7.00;;
63324;SDS011;49451;52.390;13.028;2023-02-11T21:01:10;14.52;;;6.40;;
63324;SDS011;49451;52.390;13.028;2023-02-11T21:03:38;12.70;;;6.38;;
63324;SDS011;49451;52.390;13.028;2023-02-11T21:06:04;10.80;;;5.95;;
63324;SDS011;49451;52.390;13.028;2023-02-11T21:08:29;15.15;;;7.10;;
63324;SDS011;49451;52.390;13.028;2023-02-11T21:10:55;19.13;;;8.00;;
63324;SDS011;49451;52.390;13.028;2023-02-11T21:13:20;18.45;;;7.53;;
63324;SDS011;49451;52.390;13.028;2023-02-11T21:15:45;18.20;;;7.88;;
63324;SDS011;49451;52.390;13.028;2023-02-11T21:18:11;31.55;;;9.23;;
63324;SDS011;49451;52.390;13.028;2023-02-11T21:20:37;21.83;;;8.45;;
63324;SDS011;49451;52.390;13.028;2023-02-11T21:23:02;16.10;;;8.10;;
63324;SDS011;49451;52.390;13.028;2023-02-11T21:25:28;17.40;;;7.38;;
63324;SDS011;49451;52.390;13.028;2023-02-11T21:27:53;21.73;;;8.63;;
63324;SDS011;49451;52.390;13.028;2023-02-11T21:30:18;12.68;;;6.30;;
63324;SDS011;49451;52.390;13.028;2023-02-11T21:32:44;31.55;;;9.35;;
63324;SDS011;49451;52.390;13.028;2023-02-11T21:35:09;16.88;;;6.65;;